Hawkins, MS

4:59 AM CDT en Septiembre 20, 2014 (GMT -0500)
Jackson-Evers International | Change Station
CLOSE
Current Station
Aeropuerto
Location: Jackson,
Altura: 328 ft
Estaciones meteorológicas cercanas

Alt 328 ft 32.32 °N, 90.08 °W | Updated 5 minutes ago

Despejado
Despejado
69 ° F
Sensación térmica 69 ° F
N
0
Viento Variable Viento desde Norte

Hoy
Alta -- | Baja -- ° F
--% Posibilidad de precipitaciones
Ayer
Alta -- | Baja -- ° F
Precip. -- pul
6:47 AM 7:00 PM
Creciente menguante, 13% visible
Presión 29.97 pul
Visibilidad 9.0 Millas
Nubes Despejado
Punto de rocío 67 ° F
Humedad 93%
Precipitaciones 0.00 pul
Espesor de la nieve No disponible.
UV 0 de una escala de 12
Polen 10.30 de una escala de 12
Calidad del aire No disponible.
Flu Activity No disponible.
METAR KJAN 200954Z AUTO 00000KT 9SM CLR 21/19 A2999 RMK AO2 SLP149 T02060194

More Conditions Fewer Conditions

Presión 29.97 pul
Visibilidad 9.0 Millas
Nubes Despejado
Punto de rocío 67 ° F
Humedad 93%
Precipitaciones 0.00 pul
Espesor de la nieve No disponible.
UV 0 de una escala de 12
Polen 10.30 de una escala de 12
Calidad del aire No disponible.
Flu Activity No disponible.
METAR KJAN 200954Z AUTO 00000KT 9SM CLR 21/19 A2999 RMK AO2 SLP149 T02060194

More Conditions Fewer Conditions

10-Day Weather Forecast

Almanac

Astronomía

Sep. 20, 2014 Salida Puesta
Hora real 6:47 AM CDT 7:00 PM CDT
Crepúsculo civil 6:23 AM CDT 7:24 PM CDT
Crepúsculo náutico 5:54 AM CDT 7:53 PM CDT
Crepúsculo astronómico 5:25 AM CDT 8:22 PM CDT
Luna 3:36 AM CDT 4:56 PM CDT
Horas de luz 13h 01m
Horas de luz
12h 12m
Tomorrow will be 1m 59s shorter.
Creciente menguante, 13% of the Moon is Illuminated
Hoy
Creciente menguante
Sep 24
Nueva
Oct 1
Cuarto creciente
Oct 8
Luna llena
Oct 15
Cuarto menguante

Extremos de hoy

Máximos del estado Bajos del estado

Community

WunderPhotos

Upload Photos

1,754,794 ¡fotos cargadas!

WunderBlogs® & News

Nearby

Grosos de nieve

Estación Profundido Altura
No tenemos constancia de nieve nueva.

Actividad de terremotos

Ciudad Distance Mag. Tiempo y dato
No hay informes recientes de la actividad sísmica.
Magnitud mínima muestra es 2,5.

Temperaturas de aguas costeras

Lugar Temperatura
Sin partes meteorológicos de las estaciones

Estaciones meteorológicas cercanas